Time;durP1;ratioP1;P1;durP2;ratioP2;P2;SDS_P1;SDS_P2;PMS_P1;PMS_P2;Temp;Humidity;BMP_temperature;BMP_pressure;BME280_temperature;BME280_humidity;BME280_pressure;Samples;Min_cycle;Max_cycle;Signal;HPM_P1;HPM_P2
2022/02/21 00:06:09;;;;;;;62.67;27.83;;;3.90;99.90;;;;;;21078899;28;20044;-54
2022/02/21 00:16:12;;;;;;;56.25;24.33;;;3.50;99.90;;;;;;21079687;28;20043;-57
2022/02/21 00:26:15;;;;;;;43.90;19.38;;;3.10;99.90;;;;;;21078773;28;20098;-54
2022/02/21 00:36:18;;;;;;;68.55;27.83;;;2.60;99.90;;;;;;21076988;28;20093;-54
2022/02/21 00:46:21;;;;;;;85.15;34.20;;;2.30;99.90;;;;;;21076701;28;20028;-53
2022/02/21 00:56:25;;;;;;;933.08;80.07;;;2.20;99.90;;;;;;21076063;28;20052;-57
2022/02/21 01:06:27;;;;;;;212.82;48.15;;;2.30;99.90;;;;;;21075547;28;20048;-54
2022/02/21 01:16:30;;;;;;;347.15;44.22;;;2.40;99.90;;;;;;21075184;28;20176;-56
2022/02/21 01:26:33;;;;;;;162.13;49.65;;;2.30;99.90;;;;;;21074633;28;20035;-54
2022/02/21 01:36:36;;;;;;;200.27;57.97;;;2.30;99.90;;;;;;21073081;28;20387;-55
2022/02/21 01:46:41;;;;;;;167.60;50.58;;;2.10;99.90;;;;;;21072153;28;20097;-55
2022/02/21 01:56:43;;;;;;;118.50;42.10;;;2.10;99.90;;;;;;21072503;28;20052;-54
2022/02/21 02:06:49;;;;;;;94.63;34.17;;;2.10;99.90;;;;;;21070787;28;20603;-59
2022/02/21 02:16:51;;;;;;;121.95;43.58;;;1.80;99.90;;;;;;21070067;28;20552;-53
2022/02/21 02:26:55;;;;;;;117.28;43.40;;;1.90;99.90;;;;;;21069463;28;20488;-56
2022/02/21 02:36:57;;;;;;;112.15;40.92;;;1.90;99.90;;;;;;21068663;28;20028;-56
2022/02/21 02:47:08;;;;;;;102.90;39.42;;;1.80;99.90;;;;;;21068241;28;20419;-54
2022/02/21 02:57:10;;;;;;;88.75;35.47;;;1.80;99.90;;;;;;21067064;28;20109;-55
2022/02/21 03:07:12;;;;;;;113.95;39.80;;;1.90;99.90;;;;;;21066701;28;20044;-55
2022/02/21 03:17:14;;;;;;;225.63;62.20;;;1.90;99.90;;;;;;21066248;28;20535;-55
2022/02/21 03:27:17;;;;;;;111.82;41.70;;;1.90;99.90;;;;;;21066471;28;20040;-58
2022/02/21 03:37:20;;;;;;;115.95;43.97;;;2.10;99.90;;;;;;21065475;28;20110;-55
2022/02/21 03:47:23;;;;;;;109.10;43.17;;;2.20;99.90;;;;;;21064621;28;20411;-58
2022/02/21 03:57:25;;;;;;;111.82;37.65;;;2.10;99.90;;;;;;21047973;28;20101;-56
2022/02/21 04:07:28;;;;;;;115.60;43.58;;;2.00;99.90;;;;;;21064335;28;20039;-56
2022/02/21 04:17:52;;;;;;;130.95;49.60;;;2.00;99.90;;;;;;21079092;28;20097;-57
2022/02/21 04:27:56;;;;;;;117.82;42.22;;;1.90;99.90;;;;;;21062063;28;20101;-56
2022/02/21 04:37:58;;;;;;;257.27;57.30;;;2.00;99.90;;;;;;21078307;28;20372;-55
2022/02/21 04:48:01;;;;;;;4.97;2.53;;;2.20;99.90;;;;;;21076893;28;20044;-57
2022/02/21 04:58:04;;;;;;;5.05;2.58;;;3.10;99.90;;;;;;21076456;28;20109;-58
2022/02/21 05:08:07;;;;;;;5.60;2.25;;;3.90;99.90;;;;;;21059307;28;20380;-54
2022/02/21 05:18:09;;;;;;;4.10;2.25;;;4.00;99.90;;;;;;21057697;28;20040;-54
2022/02/21 05:28:12;;;;;;;23.42;9.07;;;4.00;99.90;;;;;;21074268;28;20114;-57
2022/02/21 05:38:14;;;;;;;4.22;2.13;;;3.90;99.90;;;;;;21074298;28;20483;-55
2022/02/21 05:48:17;;;;;;;8.18;4.40;;;4.10;99.90;;;;;;21072080;28;20387;-55
2022/02/21 05:58:20;;;;;;;3.10;1.50;;;4.00;99.90;;;;;;21070434;28;20414;-56
2022/02/21 06:08:23;;;;;;;6.00;2.60;;;4.60;99.90;;;;;;20977903;28;20286;-54
2022/02/21 06:18:26;;;;;;;6.20;2.50;;;4.40;99.90;;;;;;20960718;28;20064;-55
2022/02/21 06:28:28;;;;;;;5.18;2.40;;;4.20;99.90;;;;;;20976940;28;20053;-54
2022/02/21 06:38:32;;;;;;;7.00;2.55;;;4.00;99.90;;;;;;20957890;28;20415;-55
2022/02/21 06:48:34;;;;;;;4.60;2.50;;;3.90;99.90;;;;;;21023531;28;20032;-54
2022/02/21 06:58:37;;;;;;;4.10;2.20;;;4.10;99.90;;;;;;21067259;28;20036;-55
2022/02/21 07:08:40;;;;;;;5.30;2.92;;;4.40;99.90;;;;;;21066672;28;20039;-57
2022/02/21 07:18:42;;;;;;;4.85;2.45;;;4.30;99.90;;;;;;21065902;28;20039;-56
2022/02/21 07:28:45;;;;;;;7.60;2.88;;;4.80;99.90;;;;;;21065841;28;20040;-56
2022/02/21 07:38:47;;;;;;;11.50;2.70;;;5.00;99.90;;;;;;21065487;28;20032;-56
2022/02/21 07:48:50;;;;;;;6.22;2.38;;;5.00;99.90;;;;;;21076671;28;20044;-56
2022/02/21 07:58:54;;;;;;;5.00;2.33;;;4.90;99.90;;;;;;21064698;28;20461;-54
2022/02/21 08:08:58;;;;;;;3.75;1.98;;;4.70;99.90;;;;;;21064978;28;20118;-56
2022/02/21 08:19:01;;;;;;;5.28;2.15;;;4.70;99.90;;;;;;21079376;28;20040;-58
2022/02/21 08:29:03;;;;;;;5.72;3.25;;;4.90;99.90;;;;;;21079123;28;20036;-57
2022/02/21 08:39:06;;;;;;;3.25;1.80;;;5.10;99.90;;;;;;21078049;28;20032;-55
2022/02/21 08:49:08;;;;;;;5.68;2.55;;;4.80;99.90;;;;;;21076576;28;20044;-58
2022/02/21 08:59:12;;;;;;;6.45;2.47;;;4.70;99.90;;;;;;21074999;28;20544;-59
2022/02/21 09:09:15;;;;;;;9.40;2.55;;;5.40;99.90;;;;;;21075983;28;20101;-55
2022/02/21 09:19:18;;;;;;;4.75;2.35;;;6.50;99.90;;;;;;21075435;28;20036;-54
2022/02/21 09:29:21;;;;;;;3.63;1.60;;;7.00;99.90;;;;;;20981757;28;20587;-56
2022/02/21 09:39:23;;;;;;;3.67;1.50;;;7.30;99.90;;;;;;20948095;28;20677;-54
2022/02/21 09:49:29;;;;;;;4.22;0.90;;;7.90;99.90;;;;;;20963155;28;20473;-57
2022/02/21 09:59:32;;;;;;;5.18;2.70;;;7.70;99.90;;;;;;20962210;28;20592;-57
2022/02/21 10:09:40;;;;;;;1.83;1.00;;;8.20;99.90;;;;;;21026004;28;20052;-58
2022/02/21 10:19:44;;;;;;;2.83;1.33;;;8.90;99.90;;;;;;21069775;28;20043;-57
2022/02/21 10:29:53;;;;;;;3.88;2.28;;;9.80;99.00;;;;;;21069886;28;20036;-58
2022/02/21 10:40:07;;;;;;;7.43;3.28;;;10.20;99.90;;;;;;21069511;28;20040;-60
2022/02/21 10:50:10;;;;;;;5.72;2.95;;;9.60;99.90;;;;;;21051208;28;20105;-54
2022/02/21 11:00:14;;;;;;;6.95;2.70;;;9.60;99.90;;;;;;21050368;28;20041;-57
2022/02/21 11:10:17;;;;;;;19.90;9.68;;;9.90;99.90;;;;;;21066188;28;20101;-54
2022/02/21 11:20:21;;;;;;;26.13;13.10;;;9.10;99.90;;;;;;21065216;28;20062;-58
2022/02/21 11:30:29;;;;;;;29.85;15.40;;;8.50;99.90;;;;;;21064973;28;20036;-58
2022/02/21 11:40:58;;;;;;;20.67;11.57;;;8.90;99.90;;;;;;21064598;28;20036;-54
2022/02/21 11:51:21;;;;;;;26.80;13.60;;;8.80;99.90;;;;;;21064156;28;20818;-51
2022/02/21 12:01:28;;;;;;;28.20;14.70;;;7.40;99.90;;;;;;21063982;28;20089;-52
2022/02/21 12:11:30;;;;;;;19.92;9.27;;;6.10;99.90;;;;;;21064854;28;20090;-51
2022/02/21 12:21:34;;;;;;;12.13;6.75;;;5.50;99.90;;;;;;21065060;28;20384;-50
2022/02/21 12:31:41;;;;;;;32.17;16.33;;;6.00;99.90;;;;;;21068759;28;20085;-50
2022/02/21 12:41:44;;;;;;;27.35;14.65;;;7.10;99.90;;;;;;21078387;28;20032;-54
2022/02/21 12:51:58;;;;;;;24.48;12.50;;;8.30;99.90;;;;;;21078848;28;20384;-50
2022/02/21 13:02:07;;;;;;;18.60;9.55;;;6.70;99.90;;;;;;21059924;28;20036;-51
2022/02/21 13:12:16;;;;;;;19.50;11.38;;;5.40;99.90;;;;;;21075414;28;20548;-52
2022/02/21 13:22:30;;;;;;;5.13;2.60;;;5.40;99.90;;;;;;21074405;28;20070;-50
2022/02/21 13:32:37;;;;;;;10.98;6.45;;;5.20;99.90;;;;;;21074420;28;20036;-53
2022/02/21 13:42:41;;;;;;;10.85;6.13;;;6.30;99.90;;;;;;21072412;28;20089;-52
2022/02/21 13:52:52;;;;;;;13.60;6.88;;;5.50;99.90;;;;;;21071814;28;20056;-52
2022/02/21 14:02:56;;;;;;;9.00;3.70;;;4.70;99.90;;;;;;21071707;28;20032;-54
2022/02/21 14:13:03;;;;;;;4.50;1.90;;;4.30;99.90;;;;;;21072480;28;20376;-54
2022/02/21 14:23:06;;;;;;;3.80;1.90;;;4.30;99.90;;;;;;21069708;28;20044;-51
2022/02/21 14:33:09;;;;;;;1.83;0.93;;;4.30;99.90;;;;;;21068870;28;20032;-55
2022/02/21 14:43:12;;;;;;;2.25;0.98;;;4.50;99.90;;;;;;21051374;28;20104;-53
2022/02/21 14:53:15;;;;;;;2.72;1.13;;;4.70;99.90;;;;;;21066612;28;20424;-51
2022/02/21 15:03:19;;;;;;;1.35;0.52;;;4.90;99.50;;;;;;21067895;28;20387;-53
2022/02/21 15:13:22;;;;;;;2.85;0.93;;;5.10;96.40;;;;;;21066017;28;20040;-54
2022/02/21 15:23:24;;;;;;;1.10;0.40;;;5.30;93.70;;;;;;21065278;28;20058;-53
2022/02/21 15:33:29;;;;;;;1.27;0.50;;;5.20;94.40;;;;;;21064683;28;20549;-53
2022/02/21 15:43:31;;;;;;;1.75;0.80;;;5.00;93.20;;;;;;21064559;28;20036;-52
2022/02/21 15:53:35;;;;;;;1.10;0.40;;;4.50;91.90;;;;;;21063932;28;20040;-52
2022/02/21 16:03:38;;;;;;;0.90;0.30;;;4.10;90.70;;;;;;21065492;28;20036;-51
2022/02/21 16:13:41;;;;;;;0.70;0.30;;;3.80;93.00;;;;;;21079433;28;20044;-53
2022/02/21 16:23:44;;;;;;;0.80;0.20;;;3.70;88.50;;;;;;21078976;28;20039;-54
2022/02/21 16:33:46;;;;;;;0.52;0.00;;;3.80;83.70;;;;;;21078228;28;20044;-53
2022/02/21 16:43:49;;;;;;;0.35;0.10;;;3.90;75.40;;;;;;21077628;28;20040;-53
2022/02/21 16:53:51;;;;;;;0.20;0.10;;;4.30;69.10;;;;;;21075701;28;20040;-52
2022/02/21 17:03:55;;;;;;;0.45;0.08;;;4.30;64.20;;;;;;21074861;28;20036;-51
2022/02/21 17:13:57;;;;;;;0.10;0.00;;;4.30;63.90;;;;;;21074896;28;20083;-52
2022/02/21 17:24:00;;;;;;;0.10;0.00;;;4.20;63.10;;;;;;21073695;28;20089;-52
2022/02/21 17:34:02;;;;;;;0.00;0.00;;;4.00;61.10;;;;;;21073109;28;20062;-52
2022/02/21 17:44:05;;;;;;;0.05;0.00;;;4.00;59.30;;;;;;21072272;28;20028;-54
2022/02/21 17:54:09;;;;;;;0.00;0.00;;;3.80;60.30;;;;;;21071795;28;20044;-57
2022/02/21 18:04:15;;;;;;;0.63;0.10;;;3.40;61.30;;;;;;21071693;28;20422;-54
2022/02/21 18:14:19;;;;;;;0.13;0.00;;;3.50;60.50;;;;;;21053968;28;20040;-51
2022/02/21 18:24:21;;;;;;;0.00;0.00;;;3.50;58.50;;;;;;21069332;28;20047;-54
2022/02/21 18:34:23;;;;;;;0.00;0.00;;;3.90;55.70;;;;;;21068024;28;20039;-52
2022/02/21 18:44:28;;;;;;;0.00;0.00;;;4.00;55.40;;;;;;21068143;28;20040;-54
2022/02/21 18:54:30;;;;;;;0.00;0.00;;;4.10;56.00;;;;;;21067586;28;20060;-53
2022/02/21 19:04:34;;;;;;;0.00;0.00;;;4.00;53.10;;;;;;21066759;28;20062;-53
2022/02/21 19:14:37;;;;;;;0.00;0.00;;;4.00;53.40;;;;;;21066132;28;20456;-53
2022/02/21 19:24:41;;;;;;;0.25;0.00;;;3.90;55.40;;;;;;21065843;28;20040;-53
2022/02/21 19:34:44;;;;;;;0.00;0.00;;;3.90;54.40;;;;;;21065365;28;20390;-54
2022/02/21 19:44:46;;;;;;;0.00;0.00;;;3.80;53.20;;;;;;21077182;28;20039;-52
2022/02/21 19:54:49;;;;;;;0.28;0.00;;;3.30;58.20;;;;;;21080797;28;20040;-54
2022/02/21 20:04:53;;;;;;;0.20;0.00;;;2.20;71.60;;;;;;21072425;28;20441;-59
2022/02/21 20:14:56;;;;;;;0.68;0.08;;;1.00;78.50;;;;;;21080252;28;20543;-59
2022/02/21 20:24:58;;;;;;;0.55;0.00;;;0.20;85.00;;;;;;21078738;28;20036;-57
2022/02/21 20:35:01;;;;;;;0.10;0.00;;;-0.40;88.30;;;;;;21063960;28;20040;-56
2022/02/21 20:45:05;;;;;;;1.73;0.10;;;-0.70;89.40;;;;;;21077387;28;20044;-58
2022/02/21 20:55:08;;;;;;;0.40;0.00;;;-0.90;90.20;;;;;;21075534;28;20109;-54
2022/02/21 21:05:11;;;;;;;0.10;0.00;;;-1.00;91.00;;;;;;21075712;28;20099;-55
2022/02/21 21:15:14;;;;;;;0.10;0.00;;;-1.10;92.00;;;;;;21075273;28;20040;-57
2022/02/21 21:25:16;;;;;;;0.10;0.00;;;-1.20;92.20;;;;;;21074839;28;20044;-55
2022/02/21 21:35:20;;;;;;;1.55;0.10;;;-1.20;91.20;;;;;;21075268;28;20036;-56
2022/02/21 21:45:22;;;;;;;1.17;0.10;;;-1.20;91.90;;;;;;21073226;28;20036;-56
2022/02/21 21:55:25;;;;;;;0.20;0.05;;;-1.20;91.00;;;;;;21072373;28;20048;-56
2022/02/21 22:05:28;;;;;;;0.10;0.00;;;-1.20;91.90;;;;;;21072086;28;20032;-58
2022/02/21 22:15:33;;;;;;;0.10;0.00;;;-1.30;93.20;;;;;;21071027;28;20086;-54
2022/02/21 22:25:36;;;;;;;0.20;0.10;;;-1.30;93.90;;;;;;21069951;28;20036;-58
2022/02/21 22:35:38;;;;;;;0.08;0.00;;;-1.30;92.20;;;;;;21068941;28;20097;-58
2022/02/21 22:45:41;;;;;;;0.10;0.00;;;-0.90;91.00;;;;;;21068320;28;20429;-54
2022/02/21 22:55:43;;;;;;;0.00;0.00;;;-0.50;90.40;;;;;;21067762;28;20105;-55
2022/02/21 23:05:46;;;;;;;0.20;0.00;;;-0.60;91.50;;;;;;21067022;28;20396;-58
2022/02/21 23:15:49;;;;;;;0.25;0.00;;;-0.60;89.20;;;;;;21066440;28;20048;-57
2022/02/21 23:25:51;;;;;;;0.10;0.00;;;-0.40;90.00;;;;;;21050193;28;20560;-57
2022/02/21 23:35:54;;;;;;;0.25;0.00;;;-0.40;89.00;;;;;;21065150;28;20036;-57
2022/02/21 23:45:57;;;;;;;0.00;0.00;;;-0.40;90.50;;;;;;21065460;28;20040;-59
2022/02/21 23:56:00;;;;;;;0.00;0.00;;;-0.70;91.50;;;;;;21064258;28;20454;-56
